x

Bodega Bay - 48nm Nnw Of San Francisco, Ca (46013) Wave Buoy

6:50am - Sun 30th Aug 2015 All times are PDT. -7 hours from GMT.

  • Sig Wave height 5.9ft
  • Peak Period 9s
  • Average Period 7s
  • Wind
    16mph, 18mph gusts
  • Sea Temp 59°f
  • Air Temp 59°f
  • Sea Pressure 1016.8mb
  • Bodega Bay - 48nm Nnw Of San Francisco, Ca
  • Bodega Bay - 48nm Nnw Of San Francisco, Ca

More Historic Weather Station data

Upgrade to MSW Pro to gain access to the past 30 days of data for over 8000 Wavebouys and Weather Stations around the globe.

Join Pro

Comparision Forecast

View Surf forecast
   
Sun 08/30 6:50am 6ft 9s 7s 16 18 mph 1016.8mb 59f 59f
5:50am 5.5ft 8s 7s 16 18 mph 1016.1mb 59f 59f
4:50am 5.5ft 9s 7s 18 22 mph 1016mb 59f 60f
3:50am 5.5ft 15s 7s 11 13 mph 1015.9mb 59f 61f
2:50am 5ft 15s 7s 16 18 mph 1015.6mb 60f 62f
1:50am 5ft 15s 8s 9 13 mph 1015.8mb 60f 61f
12:50am 4.5ft 14s 7s 9
mph
1016.1mb 61f 62f
Sat 08/29 11:50pm 4.5ft 15s 7s 4 7 mph 1016mb 61f 61f
10:50pm 4ft 14s 7s 4 7 mph 1016.1mb 61f 61f
9:50pm 4.5ft 14s 8s 4 7 mph 1015.9mb 61f 62f
8:50pm 4.5ft 15s 8s 7
mph
1015.8mb 61f 62f
7:50pm 4.5ft 15s 8s 4 7 mph 1015.6mb 62f 62f
6:50pm 4ft 14s 8s 2 4 mph 1016mb 62f 63f
5:50pm 4.5ft 14s 8s 4
mph
1016mb 64f 64f
4:50pm 4ft 15s 8s 2
mph
1016.1mb 63f 64f
3:50pm 3.5ft 15s 8s 7
mph
1016.3mb 62f 63f
2:50pm 3.5ft 14s 7s 4
mph
1016.5mb 62f 63f
1:50pm 4ft 15s 8s 4
mph
1016.4mb 61f 61f
12:50pm 4ft 15s 7s 4
mph
1016.4mb 61f 60f
11:50am 4ft 14s 7s 2 4 mph 1016.3mb 60f 60f
10:50am 3.5ft 14s 7s  -  2 mph 1015.9mb 59f 60f
9:50am 3.5ft 15s 7s 2
mph
1015.3mb 58f 59f
8:50am 3ft 15s 7s  -  mph 1014.9mb 58f 60f
7:50am 3ft 15s 8s 2 4 mph 1014.3mb 57f 59f
6:50am 3.5ft 15s 9s 7
mph
1013.6mb 58f 59f
5:50am 3.5ft 15s 9s 9 11 mph 1013.3mb 58f 60f
4:50am 3.5ft 16s 10s 9 11 mph 1012.9mb 58f 60f
3:50am 3ft 15s 9s 9
mph
1012.8mb 58f 60f
2:50am 3ft 15s 9s 7 9 mph 1012.7mb 58f 60f
1:50am 3.5ft 15s 9s 7 9 mph 1012.8mb 58f 60f
12:50am 3.5ft 15s 9s 7
mph
1012.8mb 58f 59f
Fri 08/28 11:50pm 3.5ft 16s 9s 2 4 mph 1012.8mb 58f 59f
10:50pm 3.5ft 16s 9s 4
mph
1012.1mb 58f 59f
9:50pm 3.5ft 15s 9s 2
mph
1012.3mb 59f 60f
8:50pm 3.5ft 15s 9s 4 7 mph 1012mb 60f 60f
7:50pm 3.5ft 16s 8s 2
mph
1011.4mb 59f 60f
6:50pm 3.5ft 15s 9s 4 7 mph 1011.7mb 59f 60f
5:50pm 3.5ft 15s 8s 7 9 mph 1012.1mb 59f 60f
4:50pm 3ft 16s 8s 7 9 mph 1012.1mb 59f 60f
3:50pm 3.5ft 16s 7s 9 11 mph 1012.4mb 59f 60f
2:50pm 3.5ft 16s 8s 7 9 mph 1012.7mb 59f 59f
1:50pm 3.5ft 16s 7s 7 9 mph 1012.9mb 59f 60f
12:50pm 3.5ft 15s 7s 7 9 mph 1013mb 59f 60f
11:50am 3.5ft 15s 7s  -  2 mph 1013mb 58f 59f
10:50am 3.5ft 15s 6s 2 4 mph 1012.7mb 58f 58f
9:50am 3.5ft 16s 5s 2 4 mph 1012.3mb 57f 58f
8:50am 3.5ft 15s 6s 9
mph
1012.9mb 57f 59f
7:50am 3.5ft 15s 6s 11 13 mph 1013.1mb 57f 59f
6:50am 3.5ft 15s 6s 13 16 mph 1012.8mb 57f 59f
5:50am 3.5ft 15s 6s 9 11 mph 1012.8mb 57f 59f
4:50am 3.5ft 15s 5s  -  2 mph 1012.4mb 57f 58f
3:50am 4ft 15s 5s 13 16 mph 1012.8mb 57f 60f
2:50am 4ft 15s 5s 16 18 mph 1013.1mb 57f 60f
1:50am 4.5ft 14s 5s 18 20 mph 1013.9mb 58f 61f
12:50am 4.5ft 14s 5s 20 22 mph 1014.2mb 58f 62f
Thu 08/27 11:50pm 4.5ft 15s 5s 22 27 mph 1014.1mb 58f 63f
10:50pm 4.5ft 15s 5s 20 25 mph 1014.3mb 58f 63f
9:50pm 4.5ft 15s 5s 25 27 mph 1014.9mb 58f 64f
8:50pm 4.5ft 16s 5s 20 25 mph 1014.6mb 59f 63f
7:50pm 4.5ft 5s 5s 22 27 mph 1014.5mb 59f 63f
6:50pm 3.5ft 15s 5s 22 27 mph 1015.1mb 59f 62f
5:50pm 3.5ft 15s 5s 18 20 mph 1015.6mb 59f 61f
4:50pm 3.5ft 15s 5s 16 18 mph 1016.4mb 59f 61f
3:50pm 3.5ft 15s 5s 18 20 mph 1017.1mb 59f 61f
2:50pm 3.5ft 15s 6s 11 13 mph 1017.7mb 59f 60f
1:50pm 3.5ft 16s 6s 13 16 mph 1017.9mb 59f 59f
12:50pm 3ft 16s 5s 9 11 mph 1018.2mb 59f 59f
11:50am 3.5ft 16s 6s 13 16 mph 1018.3mb 58f 58f
10:50am 3.5ft 13s 5s 11 13 mph 1017.9mb 58f 58f
9:50am 4ft 15s 5s 13 16 mph 1017.6mb 58f 56f
8:50am 4ft 16s 5s 16 18 mph 1017.6mb 58f 57f
7:50am 3.5ft 13s 5s 13 16 mph 1017.2mb 58f 59f
6:50am 4.5ft 5s 5s 16 18 mph 1016.7mb 58f 58f
5:50am 4.5ft 5s 5s 18 25 mph 1016.7mb 58f 58f
4:50am 5ft 5s 5s 18 22 mph 1016.5mb 58f 58f
3:50am 4.5ft 5s 5s 18 20 mph 1016.2mb 58f 59f
2:50am 4.5ft 13s 5s 18 20 mph 1016.2mb 58f 59f
1:50am 4.5ft 15s 5s 18 22 mph 1016.1mb 59f 60f
12:50am 4.5ft 14s 5s 18 20 mph 1016mb 59f 60f
Wed 08/26 11:50pm 4.5ft 15s 5s 16 20 mph 1016mb 59f 60f
10:50pm 4.5ft 10s 5s 16 18 mph 1016mb 59f 60f
9:50pm 4.5ft 11s 5s 18 20 mph 1015.8mb 59f 60f
8:50pm 4.5ft 14s 5s 20 25 mph 1015.5mb 60f 60f
7:50pm 4ft 4s 5s 20 25 mph 1015.3mb 60f 60f
6:50pm 3.5ft 14s 5s 20 25 mph 1015.7mb 60f 59f
5:50pm 4ft 14s 6s 18 22 mph 1015.9mb 60f 60f
4:50pm 3.5ft 9s 6s 16 18 mph 1016.3mb 60f 60f
3:50pm 4ft 14s 6s 13 18 mph 1016.9mb 60f 59f
2:50pm 4ft 11s 6s 11 13 mph 1017.3mb 60f 58f